Time,TemperatureF,DewpointF,PressureIn,WindDirection,WindDirectionDegrees,WindSpeedMPH,WindSpeedGustMPH,Humidity,HourlyPrecipIn,Conditions,Clouds,dailyrainin,SoftwareType,DateUTC
2013-04-12 00:03:00,57.0,56.0,-100.00,East,93,4.0,16.0,96,0.08,,,0.71,,2013-04-12 04:03:00,
2013-04-12 00:13:00,57.0,56.0,-100.00,East,93,4.0,16.0,96,0.08,,,0.71,,2013-04-12 04:13:00,
2013-04-12 00:33:00,58.0,57.0,-100.00,East,90,5.0,8.0,96,0.00,,,0.71,,2013-04-12 04:33:00,
2013-04-12 00:43:00,58.0,57.0,-100.00,East,90,5.0,8.0,96,0.00,,,0.71,,2013-04-12 04:43:00,
2013-04-12 00:53:00,58.0,57.0,-100.00,East,90,5.0,8.0,96,0.00,,,0.71,,2013-04-12 04:53:00,
2013-04-12 01:03:00,58.0,57.0,-100.00,East,90,5.0,8.0,96,0.00,,,0.71,,2013-04-12 05:03:00,
2013-04-12 01:12:00,58.0,57.0,-100.00,East,90,5.0,8.0,96,0.00,,,0.71,,2013-04-12 05:12:00,
2013-04-12 01:32:00,58.0,56.0,-100.00,NE,47,3.0,7.0,94,0.00,,,0.71,,2013-04-12 05:32:00,
2013-04-12 01:42:00,58.0,56.0,-100.00,NE,47,3.0,7.0,94,0.00,,,0.71,,2013-04-12 05:42:00,
2013-04-12 01:52:00,58.0,56.0,-100.00,NE,47,3.0,7.0,94,0.00,,,0.71,,2013-04-12 05:52:00,
2013-04-12 02:02:00,58.0,56.0,-100.00,NE,47,3.0,7.0,94,0.00,,,0.71,,2013-04-12 06:02:00,
2013-04-12 02:12:00,58.0,56.0,-100.00,NE,47,3.0,7.0,94,0.00,,,0.71,,2013-04-12 06:12:00,
2013-04-12 02:32:00,58.0,57.0,-100.00,North,352,4.0,6.0,96,0.01,,,0.72,,2013-04-12 06:32:00,
2013-04-12 02:42:00,58.0,57.0,-100.00,North,352,4.0,6.0,96,0.01,,,0.72,,2013-04-12 06:42:00,
2013-04-12 02:52:00,58.0,57.0,-100.00,North,352,4.0,6.0,96,0.01,,,0.72,,2013-04-12 06:52:00,
2013-04-12 03:02:00,58.0,57.0,-100.00,North,352,4.0,6.0,96,0.01,,,0.72,,2013-04-12 07:02:00,
2013-04-12 03:12:00,58.0,57.0,-100.00,North,352,4.0,6.0,96,0.01,,,0.72,,2013-04-12 07:12:00,
2013-04-12 03:42:00,58.0,57.0,-100.00,NW,313,4.0,12.0,96,0.06,,,0.78,,2013-04-12 07:42:00,
2013-04-12 03:52:00,58.0,57.0,-100.00,NW,313,4.0,12.0,96,0.06,,,0.78,,2013-04-12 07:52:00,
2013-04-12 04:03:00,58.0,57.0,-100.00,NW,313,4.0,12.0,96,0.06,,,0.78,,2013-04-12 08:03:00,
2013-04-12 04:12:00,58.0,57.0,-100.00,NW,313,4.0,12.0,96,0.06,,,0.78,,2013-04-12 08:12:00,
2013-04-12 04:43:00,54.0,51.0,-100.00,West,275,3.0,14.0,88,0.07,,,0.85,,2013-04-12 08:43:00,
2013-04-12 04:53:00,54.0,51.0,-100.00,West,275,3.0,14.0,88,0.07,,,0.85,,2013-04-12 08:53:00,
2013-04-12 05:02:00,54.0,51.0,-100.00,West,275,3.0,14.0,88,0.07,,,0.85,,2013-04-12 09:02:00,
2013-04-12 05:12:00,54.0,51.0,-100.00,West,275,3.0,14.0,88,0.07,,,0.85,,2013-04-12 09:12:00,
2013-04-12 05:44:00,52.0,49.0,-100.00,West,269,4.0,9.0,91,0.00,,,-99.99,,2013-04-12 09:44:00,
2013-04-12 05:53:00,52.0,49.0,-100.00,West,269,4.0,9.0,91,0.00,,,-99.99,,2013-04-12 09:53:00,
2013-04-12 06:03:00,52.0,49.0,-100.00,West,269,4.0,9.0,91,0.00,,,-99.99,,2013-04-12 10:03:00,
2013-04-12 06:13:00,52.0,49.0,-100.00,West,269,4.0,9.0,91,0.00,,,-99.99,,2013-04-12 10:13:00,
2013-04-12 06:43:00,49.0,46.0,-100.00,WNW,288,4.0,13.0,91,0.01,,,-99.99,,2013-04-12 10:43:00,
2013-04-12 06:53:00,49.0,46.0,-100.00,WNW,288,4.0,13.0,91,0.01,,,-99.99,,2013-04-12 10:53:00,
2013-04-12 07:03:00,49.0,46.0,-100.00,WNW,288,4.0,13.0,91,0.01,,,-99.99,,2013-04-12 11:03:00,
2013-04-12 07:13:00,49.0,46.0,-100.00,WNW,288,4.0,13.0,91,0.01,,,-99.99,,2013-04-12 11:13:00,
2013-04-12 07:43:00,47.0,43.0,-100.00,West,277,6.0,15.0,86,0.00,,,0.86,,2013-04-12 11:43:00,
2013-04-12 07:53:00,47.0,43.0,-100.00,West,277,6.0,15.0,86,0.00,,,0.86,,2013-04-12 11:53:00,
2013-04-12 08:03:00,47.0,43.0,-100.00,West,277,6.0,15.0,86,0.00,,,0.86,,2013-04-12 12:03:00,
2013-04-12 08:13:00,47.0,43.0,-100.00,West,277,6.0,15.0,86,0.00,,,0.86,,2013-04-12 12:13:00,
2013-04-12 08:43:00,46.0,39.0,-100.00,West,281,3.0,10.0,77,0.00,,,0.86,,2013-04-12 12:43:00,
2013-04-12 08:54:00,46.0,39.0,-100.00,West,281,3.0,10.0,77,0.00,,,0.86,,2013-04-12 12:54:00,
2013-04-12 09:03:00,46.0,39.0,-100.00,West,281,3.0,10.0,77,0.00,,,0.86,,2013-04-12 13:03:00,
2013-04-12 09:12:00,46.0,39.0,-100.00,West,281,3.0,10.0,77,0.00,,,0.86,,2013-04-12 13:12:00,
2013-04-12 09:32:00,47.0,41.0,-100.00,West,261,4.0,10.0,80,0.00,,,0.86,,2013-04-12 13:32:00,
2013-04-12 09:43:00,47.0,41.0,-100.00,West,261,4.0,10.0,80,0.00,,,0.86,,2013-04-12 13:43:00,
2013-04-12 09:53:00,47.0,41.0,-100.00,West,261,4.0,10.0,80,0.00,,,0.86,,2013-04-12 13:53:00,
2013-04-12 10:03:00,47.0,41.0,-100.00,West,261,4.0,10.0,80,0.00,,,0.86,,2013-04-12 14:03:00,
2013-04-12 10:13:00,47.0,41.0,-100.00,West,261,4.0,10.0,80,0.00,,,0.86,,2013-04-12 14:13:00,
2013-04-12 10:43:00,50.0,39.0,-100.00,WSW,253,7.0,17.0,65,0.00,,,0.86,,2013-04-12 14:43:00,
2013-04-12 10:54:00,50.0,39.0,-100.00,WSW,253,7.0,17.0,65,0.00,,,0.86,,2013-04-12 14:54:00,
2013-04-12 11:03:00,50.0,39.0,-100.00,WSW,253,7.0,17.0,65,0.00,,,0.86,,2013-04-12 15:03:00,
2013-04-12 11:12:00,50.0,39.0,-100.00,WSW,253,7.0,17.0,65,0.00,,,0.86,,2013-04-12 15:12:00,
2013-04-12 11:43:00,50.0,34.0,-100.00,WSW,255,7.0,17.0,53,0.00,,,-99.99,,2013-04-12 15:43:00,
2013-04-12 11:53:00,50.0,34.0,-100.00,WSW,255,7.0,17.0,53,0.00,,,-99.99,,2013-04-12 15:53:00,
2013-04-12 12:04:00,50.0,34.0,-100.00,WSW,255,7.0,17.0,53,0.00,,,-99.99,,2013-04-12 16:04:00,
2013-04-12 12:13:00,50.0,34.0,-100.00,WSW,255,7.0,17.0,53,0.00,,,-99.99,,2013-04-12 16:13:00,
2013-04-12 12:43:00,52.0,33.0,-100.00,WSW,246,5.0,15.0,49,0.00,,,-99.99,,2013-04-12 16:43:00,
2013-04-12 12:53:00,52.0,33.0,-100.00,WSW,246,5.0,15.0,49,0.00,,,-99.99,,2013-04-12 16:53:00,
2013-04-12 13:04:00,52.0,33.0,-100.00,WSW,246,5.0,15.0,49,0.00,,,-99.99,,2013-04-12 17:04:00,
2013-04-12 13:12:00,52.0,33.0,-100.00,WSW,246,5.0,15.0,49,0.00,,,-99.99,,2013-04-12 17:12:00,
2013-04-12 13:16:00,54.0,32.0,-100.00,WSW,253,7.0,18.0,43,0.00,,,0.86,,2013-04-12 17:16:00,
2013-04-12 13:47:00,54.0,32.0,-100.00,WSW,253,7.0,18.0,43,0.00,,,0.86,,2013-04-12 17:47:00,
2013-04-12 14:07:00,54.0,32.0,-100.00,WSW,253,7.0,18.0,43,0.00,,,0.86,,2013-04-12 18:07:00,
2013-04-12 14:16:00,56.0,34.0,-100.00,NW,309,6.0,17.0,43,0.00,,,0.86,,2013-04-12 18:16:00,
2013-04-12 15:53:00,57.0,32.0,-100.00,WNW,296,7.0,17.0,38,0.00,,,0.86,,2013-04-12 19:53:00,
2013-04-12 16:02:00,57.0,32.0,-100.00,WNW,296,7.0,17.0,38,0.00,,,0.86,,2013-04-12 20:02:00,
2013-04-12 16:13:00,57.0,32.0,-100.00,WNW,296,7.0,17.0,38,0.00,,,0.86,,2013-04-12 20:13:00,
2013-04-12 16:43:00,60.0,35.0,-100.00,WSW,254,6.0,15.0,39,0.00,,,0.86,,2013-04-12 20:43:00,
2013-04-12 16:52:00,60.0,35.0,-100.00,WSW,254,6.0,15.0,39,0.00,,,0.86,,2013-04-12 20:52:00,
2013-04-12 17:03:00,60.0,35.0,-100.00,WSW,254,6.0,15.0,39,0.00,,,0.86,,2013-04-12 21:03:00,
2013-04-12 17:12:00,60.0,35.0,-100.00,WSW,254,6.0,15.0,39,0.00,,,0.86,,2013-04-12 21:12:00,
2013-04-12 17:43:00,58.0,34.0,-100.00,West,268,6.0,15.0,40,0.00,,,0.86,,2013-04-12 21:43:00,
2013-04-12 17:53:00,58.0,34.0,-100.00,West,268,6.0,15.0,40,0.00,,,0.86,,2013-04-12 21:53:00,
2013-04-12 18:03:00,58.0,34.0,-100.00,West,268,6.0,15.0,40,0.00,,,0.86,,2013-04-12 22:03:00,
2013-04-12 18:13:00,58.0,34.0,-100.00,West,268,6.0,15.0,40,0.00,,,0.86,,2013-04-12 22:13:00,
2013-04-12 18:43:00,56.0,33.0,-100.00,WNW,284,5.0,14.0,42,0.00,,,0.86,,2013-04-12 22:43:00,
2013-04-12 18:52:00,56.0,33.0,-100.00,WNW,284,5.0,14.0,42,0.00,,,0.86,,2013-04-12 22:52:00,
2013-04-12 19:04:00,56.0,33.0,-100.00,WNW,284,5.0,14.0,42,0.00,,,0.86,,2013-04-12 23:04:00,
2013-04-12 19:12:00,56.0,33.0,-100.00,WNW,284,5.0,14.0,42,0.00,,,0.86,,2013-04-12 23:12:00,
2013-04-12 19:32:00,56.0,34.0,-100.00,NW,319,4.0,13.0,44,0.00,,,0.84,,2013-04-12 23:32:00,
2013-04-12 19:42:00,56.0,34.0,-100.00,NW,319,4.0,13.0,44,0.00,,,0.84,,2013-04-12 23:42:00,
2013-04-12 19:52:00,56.0,34.0,-100.00,NW,319,4.0,13.0,44,0.00,,,0.84,,2013-04-12 23:52:00,
2013-04-12 20:02:00,56.0,34.0,-100.00,NW,319,4.0,13.0,44,0.00,,,0.84,,2013-04-13 00:02:00,
2013-04-12 20:12:00,56.0,34.0,-100.00,NW,319,4.0,13.0,44,0.00,,,0.84,,2013-04-13 00:12:00,
2013-04-12 20:42:00,54.0,35.0,-100.00,East,81,3.0,9.0,48,0.00,,,0.66,,2013-04-13 00:42:00,
2013-04-12 20:52:00,54.0,35.0,-100.00,East,81,3.0,9.0,48,0.00,,,0.66,,2013-04-13 00:52:00,
2013-04-12 21:02:00,54.0,35.0,-100.00,East,81,3.0,9.0,48,0.00,,,0.66,,2013-04-13 01:02:00,
2013-04-12 21:13:00,54.0,35.0,-100.00,East,81,3.0,9.0,48,0.00,,,0.66,,2013-04-13 01:13:00,
2013-04-12 21:33:00,53.0,35.0,-100.00,NW,319,1.0,7.0,51,0.00,,,0.45,,2013-04-13 01:33:00,
2013-04-12 21:43:00,53.0,35.0,-100.00,NW,319,1.0,7.0,51,0.00,,,0.45,,2013-04-13 01:43:00,
2013-04-12 21:52:00,53.0,35.0,-100.00,NW,319,1.0,7.0,51,0.00,,,0.45,,2013-04-13 01:52:00,
2013-04-12 22:02:00,53.0,35.0,-100.00,NW,319,1.0,7.0,51,0.00,,,0.45,,2013-04-13 02:02:00,
2013-04-12 22:12:00,53.0,35.0,-100.00,NW,319,1.0,7.0,51,0.00,,,0.45,,2013-04-13 02:12:00,
2013-04-12 22:43:00,52.0,37.0,-100.00,NW,304,2.0,5.0,57,0.00,,,0.23,,2013-04-13 02:43:00,
2013-04-12 22:53:00,52.0,37.0,-100.00,NW,304,2.0,5.0,57,0.00,,,0.23,,2013-04-13 02:53:00,
2013-04-12 23:03:00,52.0,37.0,-100.00,NW,304,2.0,5.0,57,0.00,,,0.23,,2013-04-13 03:03:00,
2013-04-12 23:12:00,52.0,37.0,-100.00,NW,304,2.0,5.0,57,0.00,,,0.23,,2013-04-13 03:12:00,
2013-04-12 23:43:00,51.0,35.0,-100.00,North,350,3.0,8.0,55,0.00,,,0.15,,2013-04-13 03:43:00,
2013-04-12 23:54:00,51.0,35.0,-100.00,North,350,3.0,8.0,55,0.00,,,0.15,,2013-04-13 03:54:00,